Time;durP1;ratioP1;P1;durP2;ratioP2;P2;SDS_P1;SDS_P2;PMS_P1;PMS_P2;Temp;Humidity;BMP_temperature;BMP_pressure;BME280_temperature;BME280_humidity;BME280_pressure;Samples;Min_cycle;Max_cycle;Signal;HPM_P1;HPM_P2
2021/01/03 00:00:13;;;;;;;0.95;0.52;;;8.20;99.90;;;;;;5127142;27;20241;-79
2021/01/03 00:02:39;;;;;;;0.45;0.45;;;8.20;99.90;;;;;;5129500;27;20473;-79
2021/01/03 00:05:05;;;;;;;0.85;0.60;;;8.20;99.90;;;;;;5130783;27;20034;-79
2021/01/03 00:07:31;;;;;;;1.25;0.55;;;8.20;99.90;;;;;;5131530;28;20026;-80
2021/01/03 00:09:56;;;;;;;0.68;0.60;;;8.20;99.90;;;;;;5128216;28;20015;-85
2021/01/03 00:12:22;;;;;;;3.83;0.70;;;8.30;99.90;;;;;;5128032;28;20023;-85
2021/01/03 00:14:48;;;;;;;1.83;0.45;;;8.30;99.90;;;;;;5129317;28;20039;-85
2021/01/03 00:17:13;;;;;;;6.47;0.68;;;8.30;99.90;;;;;;5127961;28;20034;-80
2021/01/03 00:19:42;;;;;;;3.63;0.60;;;8.30;99.90;;;;;;5127206;28;20041;-79
2021/01/03 00:22:08;;;;;;;6.90;0.65;;;8.30;99.90;;;;;;5127416;28;20042;-80
2021/01/03 00:24:34;;;;;;;6.88;3.28;;;8.30;99.90;;;;;;5127485;28;20580;-79
2021/01/03 00:26:59;;;;;;;3.22;2.22;;;8.30;99.90;;;;;;5129716;28;20118;-80
2021/01/03 00:29:25;;;;;;;0.60;0.60;;;8.30;99.90;;;;;;5131420;28;20076;-80
2021/01/03 00:31:51;;;;;;;1.75;0.50;;;8.30;99.90;;;;;;5129611;28;20051;-80
2021/01/03 00:34:19;;;;;;;2.25;0.80;;;8.30;99.90;;;;;;5126628;28;20143;-79
2021/01/03 00:36:45;;;;;;;3.55;1.33;;;8.30;99.90;;;;;;5128236;28;20401;-80
2021/01/03 00:39:10;;;;;;;0.70;0.68;;;8.30;99.90;;;;;;5127211;28;20016;-79
2021/01/03 00:41:37;;;;;;;2.92;1.10;;;8.30;99.90;;;;;;5127017;28;20035;-79
2021/01/03 00:44:04;;;;;;;5.07;0.90;;;8.30;99.90;;;;;;5127583;28;20066;-80
2021/01/03 00:46:29;;;;;;;1.15;0.60;;;8.40;99.90;;;;;;5128876;28;20431;-80
2021/01/03 00:48:58;;;;;;;6.45;1.25;;;8.40;99.90;;;;;;5128864;28;20108;-80
2021/01/03 00:51:27;;;;;;;2.20;0.80;;;8.40;99.90;;;;;;5129412;28;20482;-79
2021/01/03 00:53:53;;;;;;;4.10;1.30;;;8.40;99.90;;;;;;5130340;28;20023;-80
2021/01/03 00:56:19;;;;;;;2.28;0.80;;;8.40;99.90;;;;;;5131378;28;20015;-80
2021/01/03 00:58:44;;;;;;;12.07;4.90;;;8.40;99.90;;;;;;5131129;28;20023;-80
2021/01/03 01:01:10;;;;;;;5.05;0.80;;;8.30;99.90;;;;;;5129880;28;20605;-80
2021/01/03 01:03:36;;;;;;;1.25;0.90;;;8.40;99.90;;;;;;5131251;28;20015;-80
2021/01/03 01:06:01;;;;;;;4.80;0.90;;;8.40;99.90;;;;;;5129946;28;20027;-80
2021/01/03 01:08:27;;;;;;;2.10;0.90;;;8.40;99.90;;;;;;5130030;28;20019;-80
2021/01/03 01:10:53;;;;;;;2.05;1.00;;;8.40;99.90;;;;;;5130218;28;20027;-80
2021/01/03 01:13:18;;;;;;;2.13;1.00;;;8.30;99.90;;;;;;5131750;27;20019;-80
2021/01/03 01:15:44;;;;;;;3.40;0.70;;;8.30;99.90;;;;;;5133744;27;20056;-80
2021/01/03 01:18:10;;;;;;;3.95;0.98;;;8.30;99.90;;;;;;5133240;27;20035;-80
2021/01/03 01:20:36;;;;;;;4.20;0.80;;;8.40;99.90;;;;;;5133905;27;20031;-80
2021/01/03 01:23:02;;;;;;;3.80;1.27;;;8.30;99.90;;;;;;5134182;27;20035;-80
2021/01/03 01:25:30;;;;;;;6.22;1.48;;;8.30;99.90;;;;;;5135124;27;20023;-80
2021/01/03 01:27:57;;;;;;;5.00;1.30;;;8.30;99.90;;;;;;5134143;27;20473;-79
2021/01/03 01:30:24;;;;;;;6.95;1.10;;;8.30;99.90;;;;;;5133820;27;20055;-80
2021/01/03 01:32:50;;;;;;;2.15;1.15;;;8.40;99.90;;;;;;5133861;27;20065;-80
2021/01/03 01:35:19;;;;;;;4.65;1.55;;;8.30;99.90;;;;;;5135157;27;20035;-80
2021/01/03 01:37:45;;;;;;;3.08;1.73;;;8.30;99.90;;;;;;5133855;27;20043;-79
2021/01/03 01:40:12;;;;;;;7.43;1.17;;;8.30;99.90;;;;;;5133848;27;20426;-79
2021/01/03 01:42:39;;;;;;;4.43;1.00;;;8.20;99.90;;;;;;5135161;27;20184;-79
2021/01/03 01:45:09;;;;;;;1.77;1.00;;;8.20;99.90;;;;;;5134930;27;20030;-79
2021/01/03 01:47:38;;;;;;;2.55;1.80;;;8.10;99.90;;;;;;5133593;27;20027;-79
2021/01/03 01:50:08;;;;;;;2.53;1.70;;;8.10;99.90;;;;;;5133453;27;20394;-79
2021/01/03 01:52:40;;;;;;;0.55;0.55;;;8.10;99.90;;;;;;5133620;27;20505;-77
2021/01/03 01:55:13;;;;;;;2.25;1.20;;;8.00;99.90;;;;;;5133605;27;20437;-77
2021/01/03 01:58:05;;;;;;;3.13;1.00;;;8.00;99.90;;;;;;5133559;27;20030;-79
2021/01/03 02:00:34;;;;;;;1.38;0.90;;;8.00;99.90;;;;;;5133576;27;20027;-79
2021/01/03 02:03:20;;;;;;;2.33;1.02;;;8.00;99.90;;;;;;5134602;27;20019;-79
2021/01/03 02:05:51;;;;;;;3.33;1.73;;;7.90;99.90;;;;;;5133221;27;20027;-80
2021/01/03 02:08:46;;;;;;;9.32;1.30;;;7.90;99.90;;;;;;5133273;27;20027;-80
2021/01/03 02:11:17;;;;;;;3.28;1.10;;;7.90;99.90;;;;;;5132329;27;20501;-79
2021/01/03 02:13:47;;;;;;;1.38;0.98;;;7.90;99.90;;;;;;5133232;27;20041;-79
2021/01/03 02:16:17;;;;;;;2.65;1.42;;;7.80;99.90;;;;;;5132540;27;20100;-80
2021/01/03 02:18:45;;;;;;;6.10;1.25;;;7.80;99.90;;;;;;5132161;27;20386;-80
2021/01/03 02:21:38;;;;;;;2.10;1.15;;;7.70;99.90;;;;;;5132976;27;20538;-84
2021/01/03 02:24:34;;;;;;;2.65;0.90;;;7.70;99.90;;;;;;5132808;27;20035;-84
2021/01/03 02:27:25;;;;;;;3.25;1.23;;;7.70;99.90;;;;;;5124366;27;20265;-84
2021/01/03 02:29:53;;;;;;;2.05;1.20;;;7.70;99.90;;;;;;5132807;27;20031;-84
2021/01/03 02:32:22;;;;;;;4.80;0.85;;;7.60;99.90;;;;;;5132458;27;20062;-84
2021/01/03 02:34:49;;;;;;;5.43;1.50;;;7.60;99.90;;;;;;5132585;27;20661;-84
2021/01/03 02:37:41;;;;;;;2.30;1.20;;;7.60;99.90;;;;;;5132701;27;20497;-85
2021/01/03 02:40:12;;;;;;;2.40;0.63;;;7.70;99.90;;;;;;5132543;27;20031;-84
2021/01/03 02:42:41;;;;;;;1.58;1.10;;;7.60;99.90;;;;;;5132625;27;20054;-84
2021/01/03 02:45:18;;;;;;;3.35;1.10;;;7.60;99.90;;;;;;5132298;27;20020;-85
2021/01/03 02:47:44;;;;;;;6.95;1.33;;;7.60;99.90;;;;;;5133757;27;20478;-84
2021/01/03 02:50:13;;;;;;;2.65;1.75;;;7.60;99.90;;;;;;5132403;27;20050;-85
2021/01/03 02:52:41;;;;;;;2.72;1.13;;;7.60;99.90;;;;;;5132463;27;20023;-85
2021/01/03 02:55:09;;;;;;;2.10;0.98;;;7.60;99.90;;;;;;5133584;27;20028;-84
2021/01/03 02:57:35;;;;;;;4.32;0.82;;;7.60;99.90;;;;;;5132354;27;20470;-85
2021/01/03 03:00:01;;;;;;;3.55;1.02;;;7.50;99.90;;;;;;5132331;27;20027;-85
2021/01/03 03:02:27;;;;;;;3.60;0.90;;;7.60;99.90;;;;;;5132276;27;20110;-85
2021/01/03 03:04:53;;;;;;;4.50;1.27;;;7.50;99.90;;;;;;5131863;27;20106;-85
2021/01/03 03:07:18;;;;;;;1.58;0.80;;;7.60;99.90;;;;;;5132080;27;20043;-85
2021/01/03 03:09:47;;;;;;;2.90;1.27;;;7.60;99.90;;;;;;5132208;27;20054;-85
2021/01/03 03:12:13;;;;;;;4.65;1.00;;;7.60;99.90;;;;;;5133486;27;20050;-85
2021/01/03 03:14:39;;;;;;;1.55;0.73;;;7.60;99.90;;;;;;5131736;27;20074;-85
2021/01/03 03:17:07;;;;;;;3.00;1.25;;;7.60;99.90;;;;;;5132087;27;20076;-85
2021/01/03 03:19:32;;;;;;;0.77;0.65;;;7.60;99.90;;;;;;5132132;27;20023;-85
2021/01/03 03:21:58;;;;;;;0.80;0.80;;;7.60;99.90;;;;;;5131956;27;20031;-85
2021/01/03 03:24:24;;;;;;;1.42;0.82;;;7.60;99.90;;;;;;5131854;27;20026;-84
2021/01/03 03:27:01;;;;;;;1.05;0.70;;;7.60;99.90;;;;;;5132170;27;20051;-84
2021/01/03 03:29:27;;;;;;;1.73;0.85;;;7.60;99.90;;;;;;5132585;27;20019;-85
2021/01/03 03:31:54;;;;;;;3.30;0.75;;;7.60;99.90;;;;;;5132573;27;20027;-85
2021/01/03 03:34:21;;;;;;;1.40;0.80;;;7.60;99.90;;;;;;5133095;27;20106;-84
2021/01/03 03:36:50;;;;;;;1.67;0.77;;;7.50;99.90;;;;;;5132045;27;20023;-85
2021/01/03 03:39:15;;;;;;;1.83;0.75;;;7.50;99.90;;;;;;5132053;27;20394;-85
2021/01/03 03:55:14;;;;;;;0.65;0.65;;;7.60;99.90;;;;;;6195742;22;20113;-84
2021/01/03 03:57:43;;;;;;;1.27;0.50;;;7.70;99.90;;;;;;6167335;23;20495;-84
2021/01/03 04:00:13;;;;;;;0.95;0.65;;;7.70;99.90;;;;;;6167439;23;20008;-84
2021/01/03 04:02:42;;;;;;;0.80;0.60;;;7.70;99.90;;;;;;6167383;23;20008;-84
2021/01/03 04:05:35;;;;;;;2.00;0.50;;;7.60;99.90;;;;;;6193398;23;20001;-84
2021/01/03 04:08:01;;;;;;;3.30;0.85;;;7.60;99.90;;;;;;6187767;23;20001;-80
2021/01/03 04:10:30;;;;;;;0.50;0.43;;;7.60;99.90;;;;;;6164285;23;20020;-85
2021/01/03 04:12:55;;;;;;;1.67;0.70;;;7.50;99.90;;;;;;6189877;23;20009;-84
2021/01/03 04:15:21;;;;;;;2.40;0.75;;;7.60;99.90;;;;;;6163729;23;20493;-84
2021/01/03 04:17:48;;;;;;;0.65;0.50;;;7.50;99.90;;;;;;6163853;23;20432;-84
2021/01/03 04:20:18;;;;;;;3.10;1.00;;;7.50;99.90;;;;;;6166045;23;20012;-84
2021/01/03 04:22:45;;;;;;;3.05;0.88;;;7.50;99.90;;;;;;6166601;23;20001;-84
2021/01/03 04:25:13;;;;;;;0.57;0.57;;;7.50;99.90;;;;;;6166256;23;20005;-84
2021/01/03 04:27:39;;;;;;;0.95;0.60;;;7.40;99.90;;;;;;6166286;23;20009;-84
2021/01/03 04:30:07;;;;;;;0.60;0.60;;;7.40;99.90;;;;;;6167061;23;20012;-84
2021/01/03 04:32:33;;;;;;;1.38;0.50;;;7.30;99.90;;;;;;6167076;23;20009;-84
2021/01/03 04:34:58;;;;;;;2.47;0.57;;;7.30;99.90;;;;;;6167252;23;20040;-84
2021/01/03 04:37:24;;;;;;;0.98;0.57;;;7.30;99.90;;;;;;6167169;23;20478;-84
2021/01/03 04:39:50;;;;;;;2.63;1.20;;;7.30;99.90;;;;;;6167139;23;20095;-83
2021/01/03 04:42:19;;;;;;;0.70;0.70;;;7.30;99.90;;;;;;6193172;23;20080;-84
2021/01/03 04:44:53;;;;;;;0.93;0.60;;;7.30;99.90;;;;;;6167119;23;20614;-84
2021/01/03 04:47:18;;;;;;;2.80;0.80;;;7.30;99.90;;;;;;6193153;23;20076;-84
2021/01/03 04:49:57;;;;;;;1.05;0.70;;;7.30;99.90;;;;;;6166870;23;20059;-84
2021/01/03 04:52:40;;;;;;;4.22;1.08;;;7.20;99.90;;;;;;6166464;23;20059;-84
2021/01/03 04:55:23;;;;;;;1.08;1.08;;;7.20;99.90;;;;;;6162220;23;20441;-83
2021/01/03 04:57:55;;;;;;;1.08;0.98;;;7.10;99.90;;;;;;6159320;23;20013;-84
2021/01/03 05:00:26;;;;;;;3.85;1.35;;;7.10;99.90;;;;;;6159945;23;20087;-84
2021/01/03 05:03:25;;;;;;;0.60;0.60;;;7.10;99.90;;;;;;6159910;23;20080;-83
2021/01/03 05:05:51;;;;;;;1.65;0.70;;;7.10;99.90;;;;;;6158734;23;20024;-84
2021/01/03 05:08:17;;;;;;;2.58;0.60;;;7.10;99.90;;;;;;6159981;23;20005;-84
2021/01/03 05:10:43;;;;;;;1.92;0.80;;;7.10;99.90;;;;;;6186543;23;20336;-84
2021/01/03 05:13:17;;;;;;;1.00;0.80;;;7.10;99.90;;;;;;6159914;23;20079;-83
2021/01/03 05:15:43;;;;;;;1.25;0.90;;;7.10;99.90;;;;;;6159963;23;20016;-84
2021/01/03 05:18:09;;;;;;;1.85;0.50;;;7.10;99.90;;;;;;6160218;23;20344;-84
2021/01/03 05:20:34;;;;;;;0.73;0.52;;;7.10;99.90;;;;;;6186234;23;20001;-84
2021/01/03 05:23:18;;;;;;;0.50;0.50;;;7.10;99.90;;;;;;6159862;23;20004;-84
2021/01/03 05:25:45;;;;;;;0.73;0.73;;;7.10;99.90;;;;;;6159228;23;20377;-80
2021/01/03 05:28:19;;;;;;;1.02;0.68;;;7.00;99.90;;;;;;6157596;23;20005;-80
2021/01/03 05:30:45;;;;;;;1.45;0.80;;;7.10;99.90;;;;;;6157320;23;20005;-79
2021/01/03 05:33:15;;;;;;;2.25;0.70;;;7.10;99.90;;;;;;6156677;23;20079;-80
2021/01/03 05:35:44;;;;;;;1.55;0.70;;;7.00;99.90;;;;;;6157242;23;20019;-80
2021/01/03 05:38:12;;;;;;;0.60;0.60;;;7.00;99.90;;;;;;6157363;23;20015;-80
2021/01/03 05:40:40;;;;;;;0.70;0.70;;;7.10;99.90;;;;;;6157273;23;20005;-80
2021/01/03 05:43:22;;;;;;;0.82;0.70;;;7.10;99.90;;;;;;6184279;23;20436;-80
2021/01/03 05:45:54;;;;;;;0.73;0.73;;;7.10;99.90;;;;;;6158158;23;20001;-80
2021/01/03 05:48:24;;;;;;;0.90;0.80;;;7.10;99.90;;;;;;6158157;23;20029;-80
2021/01/03 05:50:50;;;;;;;1.35;0.90;;;7.10;99.90;;;;;;6158212;23;19997;-80
2021/01/03 05:53:25;;;;;;;2.03;0.60;;;7.10;99.90;;;;;;6157903;23;20009;-80
2021/01/03 05:55:58;;;;;;;0.65;0.63;;;7.20;99.90;;;;;;6157890;23;20028;-80
2021/01/03 05:58:31;;;;;;;3.40;0.95;;;7.20;99.90;;;;;;6158069;23;20495;-80
2021/01/03 06:01:17;;;;;;;0.75;0.50;;;7.10;99.90;;;;;;6158089;23;20012;-80
2021/01/03 06:03:46;;;;;;;0.85;0.65;;;7.10;99.90;;;;;;6157805;23;20012;-80
2021/01/03 06:06:19;;;;;;;2.35;0.80;;;7.10;99.90;;;;;;6157395;23;20001;-80
2021/01/03 06:08:47;;;;;;;1.58;0.88;;;7.20;99.90;;;;;;6157936;23;20008;-80
2021/01/03 06:11:18;;;;;;;3.60;0.85;;;7.20;99.90;;;;;;6157890;23;20012;-80
2021/01/03 06:13:48;;;;;;;1.38;1.10;;;7.20;99.90;;;;;;6157889;23;20005;-80
2021/01/03 06:16:14;;;;;;;1.15;0.90;;;7.30;99.90;;;;;;6184051;23;20237;-80
2021/01/03 06:18:49;;;;;;;1.45;0.80;;;7.20;99.90;;;;;;6184215;23;20005;-80
2021/01/03 06:21:33;;;;;;;1.65;0.80;;;7.30;99.90;;;;;;6157987;23;20056;-80
2021/01/03 06:24:10;;;;;;;1.10;1.10;;;7.30;99.90;;;;;;6184002;23;20045;-80
2021/01/03 06:27:01;;;;;;;0.70;0.70;;;7.30;99.90;;;;;;6157717;23;20004;-80
2021/01/03 06:29:38;;;;;;;0.75;0.50;;;7.30;99.90;;;;;;6184143;23;20008;-80
2021/01/03 06:32:38;;;;;;;0.68;0.65;;;7.30;99.90;;;;;;6157769;23;20004;-80
2021/01/03 06:35:22;;;;;;;1.52;0.75;;;7.30;99.90;;;;;;6157776;23;20001;-80
2021/01/03 06:38:13;;;;;;;1.83;0.60;;;7.30;99.90;;;;;;6157931;23;20433;-80
2021/01/03 06:40:53;;;;;;;2.97;0.77;;;7.30;99.90;;;;;;6157562;23;19997;-80
2021/01/03 06:43:27;;;;;;;1.33;0.88;;;7.30;99.90;;;;;;6157575;23;20005;-80
2021/01/03 06:45:59;;;;;;;0.60;0.60;;;7.30;99.90;;;;;;6157613;23;20085;-80
2021/01/03 06:48:46;;;;;;;1.67;0.82;;;7.30;99.90;;;;;;6184085;23;20072;-80
2021/01/03 06:51:49;;;;;;;2.58;0.80;;;7.30;99.90;;;;;;6157719;23;20001;-80
2021/01/03 06:54:27;;;;;;;1.65;0.60;;;7.30;99.90;;;;;;6157416;23;20033;-80
2021/01/03 06:57:20;;;;;;;0.85;0.55;;;7.30;99.90;;;;;;6183794;23;20009;-80
2021/01/03 07:00:07;;;;;;;3.08;0.70;;;7.30;99.90;;;;;;6183940;23;20185;-80
2021/01/03 07:02:39;;;;;;;0.82;0.50;;;7.20;99.90;;;;;;6157487;23;20015;-80
2021/01/03 07:05:07;;;;;;;2.55;0.88;;;7.20;99.90;;;;;;6157579;23;20314;-80
2021/01/03 07:07:34;;;;;;;1.05;0.90;;;7.30;99.90;;;;;;6157399;23;20009;-80
2021/01/03 07:10:18;;;;;;;0.85;0.70;;;7.30;99.90;;;;;;6157594;23;20484;-80
2021/01/03 07:12:47;;;;;;;3.20;0.70;;;7.30;99.90;;;;;;6183950;23;20060;-80
2021/01/03 07:15:34;;;;;;;1.65;1.00;;;7.30;99.90;;;;;;6157360;23;20013;-80
2021/01/03 07:18:25;;;;;;;2.15;1.23;;;7.30;99.90;;;;;;6136685;23;20027;-80
2021/01/03 07:21:03;;;;;;;1.58;1.23;;;7.30;99.90;;;;;;6183725;23;20005;-80
2021/01/03 07:23:40;;;;;;;1.23;1.00;;;7.30;99.90;;;;;;6157200;23;20065;-80
2021/01/03 07:26:24;;;;;;;1.92;1.30;;;7.30;99.90;;;;;;6157219;23;20001;-80
2021/01/03 07:29:14;;;;;;;1.58;1.30;;;7.40;99.90;;;;;;6157444;23;20004;-80
2021/01/03 07:31:42;;;;;;;1.15;0.88;;;7.40;99.90;;;;;;6166297;23;20005;-80
2021/01/03 07:34:13;;;;;;;1.00;0.90;;;7.40;99.90;;;;;;6183691;23;20016;-80
2021/01/03 07:36:41;;;;;;;2.20;1.38;;;7.40;99.90;;;;;;6183438;23;20001;-80
2021/01/03 07:39:14;;;;;;;4.32;1.98;;;7.40;99.90;;;;;;6183724;23;20008;-80
2021/01/03 07:41:41;;;;;;;21.67;8.20;;;7.40;99.90;;;;;;6157276;23;20437;-80
2021/01/03 07:44:20;;;;;;;9.52;5.32;;;7.50;99.90;;;;;;6157027;23;20009;-80
2021/01/03 07:46:54;;;;;;;2.40;2.20;;;7.50;99.90;;;;;;6157132;23;20426;-80
2021/01/03 07:49:22;;;;;;;2.90;1.65;;;7.50;99.90;;;;;;6157321;23;20005;-80
2021/01/03 07:51:48;;;;;;;4.88;2.00;;;7.50;99.90;;;;;;6157194;23;20012;-80
2021/01/03 07:54:14;;;;;;;2.22;1.50;;;7.50;99.90;;;;;;6156626;23;20406;-80
2021/01/03 07:56:40;;;;;;;4.03;1.63;;;7.60;99.90;;;;;;6182518;23;20001;-80
2021/01/03 07:59:05;;;;;;;2.05;1.23;;;7.50;99.90;;;;;;6155083;23;20009;-80
2021/01/03 08:01:42;;;;;;;1.00;1.00;;;7.60;99.90;;;;;;6155287;23;20005;-80
2021/01/03 08:04:18;;;;;;;5.07;1.20;;;7.70;99.90;;;;;;6181524;23;20294;-80
2021/01/03 08:06:44;;;;;;;2.25;0.93;;;7.70;99.90;;;;;;6155404;23;20008;-80
2021/01/03 08:09:09;;;;;;;0.77;0.77;;;7.80;99.90;;;;;;6155591;23;20005;-80
2021/01/03 08:11:41;;;;;;;5.22;0.90;;;7.80;99.90;;;;;;6155795;23;20005;-80
2021/01/03 08:14:25;;;;;;;2.67;0.93;;;7.80;99.90;;;;;;6157192;23;20005;-80
2021/01/03 08:16:51;;;;;;;1.48;0.75;;;7.90;99.90;;;;;;6157394;23;20009;-80
2021/01/03 08:19:22;;;;;;;0.75;0.73;;;8.00;99.90;;;;;;6156920;23;20095;-80
2021/01/03 08:21:54;;;;;;;1.25;1.02;;;8.00;99.90;;;;;;6157062;23;20005;-80
2021/01/03 08:24:19;;;;;;;;;;;8.10;99.90;;;;;;6157405;23;20005;-80
2021/01/03 08:26:52;;;;;;;8.48;1.52;;;8.20;99.90;;;;;;6182690;23;19911;-80
2021/01/03 08:29:42;;;;;;;4.68;1.83;;;8.30;99.90;;;;;;6155692;23;20005;-80
2021/01/03 08:32:20;;;;;;;13.98;1.42;;;8.40;99.90;;;;;;6184089;23;20001;-80
2021/01/03 08:34:45;;;;;;;5.28;2.00;;;8.50;99.90;;;;;;6157280;23;20341;-80
2021/01/03 08:37:27;;;;;;;6.72;2.92;;;8.50;99.90;;;;;;6184212;23;20007;-80
2021/01/03 08:39:54;;;;;;;4.32;1.40;;;8.50;99.90;;;;;;6183875;23;20004;-80
2021/01/03 08:42:39;;;;;;;4.85;1.48;;;8.60;99.90;;;;;;6184135;23;20491;-80
2021/01/03 08:45:07;;;;;;;3.03;1.60;;;8.70;99.90;;;;;;6149653;23;20009;-80
2021/01/03 08:47:39;;;;;;;4.55;1.25;;;8.70;99.90;;;;;;6149215;23;20016;-80
2021/01/03 08:50:22;;;;;;;5.40;2.00;;;8.70;99.90;;;;;;6150960;23;20008;-80
2021/01/03 08:53:04;;;;;;;6.22;1.65;;;8.70;99.90;;;;;;6151923;23;20333;-80
2021/01/03 08:55:36;;;;;;;8.90;3.25;;;8.70;99.90;;;;;;6148676;23;20020;-80
2021/01/03 08:58:06;;;;;;;4.63;4.03;;;8.70;99.90;;;;;;6150465;23;20448;-80
2021/01/03 09:00:35;;;;;;;7.38;4.28;;;8.70;99.90;;;;;;6177622;23;20384;-80
2021/01/03 09:03:02;;;;;;;7.88;3.75;;;8.60;99.90;;;;;;6181030;23;20001;-80
2021/01/03 09:05:36;;;;;;;5.25;3.05;;;8.60;99.90;;;;;;6148376;23;20005;-80
2021/01/03 09:08:05;;;;;;;35.40;15.90;;;8.70;99.90;;;;;;6149988;23;20005;-80
2021/01/03 09:10:41;;;;;;;19.65;9.57;;;8.70;99.90;;;;;;6146389;23;20005;-80
2021/01/03 09:13:19;;;;;;;5.82;3.53;;;8.70;99.90;;;;;;6151784;23;20009;-80
2021/01/03 09:15:54;;;;;;;10.77;4.28;;;8.70;99.90;;;;;;6171924;23;20009;-80
2021/01/03 09:18:26;;;;;;;6.55;2.00;;;8.80;99.90;;;;;;6150665;23;20001;-79
2021/01/03 09:21:00;;;;;;;4.75;2.00;;;8.80;99.90;;;;;;6173007;23;20012;-80
2021/01/03 09:23:29;;;;;;;7.35;2.05;;;8.80;99.90;;;;;;6150969;23;20329;-83
2021/01/03 09:25:57;;;;;;;2.55;1.65;;;8.80;99.90;;;;;;6173679;23;20047;-84
2021/01/03 09:28:30;;;;;;;9.57;2.22;;;8.80;99.90;;;;;;6177424;23;20009;-84
2021/01/03 09:31:22;;;;;;;4.30;2.50;;;8.80;99.90;;;;;;6170127;23;20001;-83
2021/01/03 09:33:51;;;;;;;9.00;1.95;;;8.80;99.90;;;;;;6151147;23;20032;-84
2021/01/03 09:36:42;;;;;;;6.20;1.42;;;8.80;99.90;;;;;;6148419;23;20093;-84
2021/01/03 09:39:34;;;;;;;9.30;1.40;;;8.80;99.90;;;;;;6151858;23;20056;-83
2021/01/03 09:42:36;;;;;;;5.60;1.50;;;8.80;99.90;;;;;;6180616;23;20005;-83
2021/01/03 09:45:18;;;;;;;4.40;1.35;;;8.80;99.90;;;;;;6181264;23;20092;-84
2021/01/03 09:47:46;;;;;;;4.90;1.60;;;8.90;99.90;;;;;;6156769;23;20052;-83
2021/01/03 09:50:27;;;;;;;4.80;1.67;;;8.90;99.90;;;;;;6182121;23;20011;-84
2021/01/03 09:53:08;;;;;;;5.15;1.67;;;8.90;99.90;;;;;;6157277;23;20088;-84
2021/01/03 09:55:41;;;;;;;12.43;1.42;;;8.90;99.90;;;;;;6154358;23;20460;-83
2021/01/03 09:58:08;;;;;;;;;;;8.90;99.90;;;;;;6156935;23;20009;-83
2021/01/03 10:00:53;;;;;;;6.07;1.50;;;9.00;99.90;;;;;;6180669;23;19900;-84
2021/01/03 10:03:42;;;;;;;5.22;2.20;;;9.00;99.90;;;;;;6156541;23;20009;-83
2021/01/03 10:06:17;;;;;;;3.72;1.27;;;9.00;99.90;;;;;;6181671;23;20004;-82
2021/01/03 10:08:44;;;;;;;6.82;2.10;;;9.10;99.90;;;;;;6182221;23;20001;-83
2021/01/03 10:11:10;;;;;;;8.77;3.60;;;9.10;99.90;;;;;;6182395;23;20009;-84
2021/01/03 10:13:36;;;;;;;8.82;2.67;;;9.10;99.90;;;;;;6154781;23;20077;-84
2021/01/03 10:16:24;;;;;;;7.28;2.72;;;9.20;99.90;;;;;;6154896;23;20096;-84
2021/01/03 10:18:50;;;;;;;4.90;2.22;;;9.30;99.90;;;;;;6155232;23;20314;-84
2021/01/03 10:21:38;;;;;;;12.05;2.20;;;9.20;99.90;;;;;;6156496;23;20092;-84
2021/01/03 10:24:04;;;;;;;4.18;2.00;;;9.30;99.90;;;;;;6153475;23;20032;-83
2021/01/03 10:26:34;;;;;;;6.45;3.70;;;9.30;99.90;;;;;;6155224;23;20441;-83
2021/01/03 10:29:01;;;;;;;6.47;3.00;;;9.40;99.90;;;;;;6153499;23;20001;-83
2021/01/03 10:31:44;;;;;;;9.15;3.10;;;9.40;99.90;;;;;;6178761;23;20001;-84
2021/01/03 10:34:12;;;;;;;1.95;1.58;;;9.50;99.90;;;;;;6175890;23;20080;-83
2021/01/03 10:36:37;;;;;;;4.75;1.67;;;9.50;99.90;;;;;;6155574;23;20009;-84
2021/01/03 10:39:07;;;;;;;7.20;1.75;;;9.50;99.90;;;;;;6178580;23;20518;-83
2021/01/03 10:41:34;;;;;;;4.22;1.23;;;9.50;99.90;;;;;;6155322;23;20013;-84
2021/01/03 10:44:01;;;;;;;3.85;1.77;;;9.50;99.90;;;;;;6179972;23;20039;-83
2021/01/03 10:46:27;;;;;;;3.47;1.95;;;9.50;99.90;;;;;;6156141;23;20021;-83
2021/01/03 10:48:53;;;;;;;9.30;1.73;;;9.50;99.90;;;;;;6153628;23;20429;-83
2021/01/03 10:51:30;;;;;;;3.38;1.73;;;9.50;99.90;;;;;;6156578;23;20051;-83
2021/01/03 10:53:56;;;;;;;2.95;2.20;;;9.50;99.90;;;;;;6152998;23;20020;-83
2021/01/03 10:56:22;;;;;;;8.60;1.98;;;9.50;99.90;;;;;;6156118;23;20019;-83
2021/01/03 10:58:47;;;;;;;4.75;1.90;;;9.50;99.90;;;;;;6179960;23;20009;-83
2021/01/03 11:01:13;;;;;;;4.40;1.70;;;9.50;99.90;;;;;;6157637;23;20012;-82
2021/01/03 11:03:40;;;;;;;5.50;1.67;;;9.50;99.90;;;;;;6158917;23;20016;-84
2021/01/03 11:06:06;;;;;;;3.25;1.70;;;9.60;99.90;;;;;;6159051;23;20008;-83
2021/01/03 11:08:32;;;;;;;7.18;1.70;;;9.60;99.90;;;;;;6185680;23;20001;-83
2021/01/03 11:10:57;;;;;;;6.22;1.95;;;9.60;99.90;;;;;;6185607;23;20017;-83
2021/01/03 11:13:23;;;;;;;10.35;1.33;;;9.60;99.90;;;;;;6159220;23;20005;-83
2021/01/03 11:15:49;;;;;;;6.75;1.83;;;9.60;99.90;;;;;;6185363;23;20051;-83
2021/01/03 11:18:14;;;;;;;2.75;1.75;;;9.50;99.90;;;;;;6185440;23;20051;-84
2021/01/03 11:20:40;;;;;;;5.65;1.83;;;9.50;99.90;;;;;;6159393;23;20147;-83
2021/01/03 11:23:06;;;;;;;3.72;1.63;;;9.50;99.90;;;;;;6159113;23;20045;-83
2021/01/03 11:25:31;;;;;;;5.70;1.90;;;9.50;99.90;;;;;;6159244;23;20071;-83
2021/01/03 11:27:57;;;;;;;4.72;1.42;;;9.50;99.90;;;;;;6185623;23;20376;-83
2021/01/03 11:30:23;;;;;;;5.63;1.58;;;9.50;99.90;;;;;;6185477;23;20380;-83
2021/01/03 11:32:48;;;;;;;3.45;1.67;;;9.40;99.90;;;;;;6157992;23;20001;-83
2021/01/03 11:35:16;;;;;;;3.75;1.25;;;9.50;99.90;;;;;;6185562;23;20009;-84
2021/01/03 11:37:41;;;;;;;5.03;1.40;;;9.50;99.90;;;;;;6185205;23;20361;-83
2021/01/03 11:40:08;;;;;;;11.18;1.70;;;9.50;99.90;;;;;;6185321;23;20075;-80
2021/01/03 11:42:37;;;;;;;7.95;1.38;;;9.50;99.90;;;;;;6181053;23;20433;-80
2021/01/03 11:45:09;;;;;;;6.85;1.67;;;9.50;99.90;;;;;;6156047;23;20005;-81
2021/01/03 11:47:35;;;;;;;2.10;1.45;;;9.50;99.90;;;;;;6156311;23;20005;-80
2021/01/03 11:50:00;;;;;;;3.45;1.33;;;9.60;99.90;;;;;;6181847;23;20704;-81
2021/01/03 11:52:28;;;;;;;3.33;1.15;;;9.60;99.90;;;;;;6182175;23;19997;-81
2021/01/03 11:54:53;;;;;;;3.47;1.73;;;9.60;99.90;;;;;;6182154;23;20330;-81
2021/01/03 11:57:19;;;;;;;2.15;1.02;;;9.60;99.90;;;;;;6155343;23;20006;-82
2021/01/03 11:59:45;;;;;;;6.07;1.88;;;9.60;99.90;;;;;;6155830;23;20029;-81
2021/01/03 12:02:11;;;;;;;3.10;1.35;;;9.60;99.90;;;;;;6181980;23;20083;-82
2021/01/03 12:04:38;;;;;;;5.95;1.85;;;9.70;99.90;;;;;;6155312;23;20459;-82
2021/01/03 12:07:07;;;;;;;5.75;1.75;;;9.70;99.90;;;;;;6158216;23;20001;-80
2021/01/03 12:09:33;;;;;;;2.45;0.90;;;9.70;99.90;;;;;;6158423;23;20008;-79
2021/01/03 12:12:02;;;;;;;5.38;1.00;;;9.70;99.90;;;;;;6157668;23;20063;-80
2021/01/03 12:14:28;;;;;;;2.03;0.90;;;9.70;99.90;;;;;;6160313;23;20012;-80
2021/01/03 12:17:00;;;;;;;4.03;1.23;;;9.70;99.90;;;;;;6160823;23;20095;-80
2021/01/03 12:19:27;;;;;;;2.25;1.08;;;9.70;99.90;;;;;;6160705;23;20015;-80
2021/01/03 12:21:55;;;;;;;4.15;1.27;;;9.70;99.90;;;;;;6187196;23;20040;-79
2021/01/03 12:24:21;;;;;;;4.47;1.08;;;9.70;99.90;;;;;;6160529;23;20008;-80
2021/01/03 12:26:47;;;;;;;4.68;1.15;;;9.60;99.90;;;;;;6160711;23;20033;-79
2021/01/03 12:29:14;;;;;;;4.75;1.50;;;9.60;99.90;;;;;;6187202;23;20456;-80
2021/01/03 12:31:48;;;;;;;4.95;1.38;;;9.60;99.90;;;;;;6187122;23;20005;-80
2021/01/03 12:34:19;;;;;;;4.47;1.20;;;9.60;99.90;;;;;;6160697;23;20001;-80
2021/01/03 12:36:44;;;;;;;3.53;1.23;;;9.60;99.90;;;;;;6160595;23;20426;-80
2021/01/03 12:39:12;;;;;;;3.15;1.65;;;9.60;99.90;;;;;;6160874;23;20012;-80
2021/01/03 12:41:38;;;;;;;5.38;1.13;;;9.60;99.90;;;;;;6187103;23;20005;-80
2021/01/03 12:44:06;;;;;;;2.10;1.45;;;9.60;99.90;;;;;;6160526;23;20013;-80
2021/01/03 12:46:34;;;;;;;11.02;2.25;;;9.60;99.90;;;;;;6186856;23;20048;-80
2021/01/03 12:49:00;;;;;;;4.85;1.30;;;9.60;99.90;;;;;;6160518;23;20008;-80
2021/01/03 12:51:27;;;;;;;4.63;1.45;;;9.50;99.90;;;;;;6160647;23;20005;-80
2021/01/03 12:53:53;;;;;;;4.80;1.83;;;9.50;99.90;;;;;;6160275;23;20118;-80
2021/01/03 12:56:23;;;;;;;8.95;1.30;;;9.50;99.90;;;;;;6160757;23;20016;-80
2021/01/03 12:58:50;;;;;;;3.72;1.40;;;9.50;99.90;;;;;;6160547;23;20009;-80
2021/01/03 13:01:16;;;;;;;4.00;1.35;;;9.50;99.90;;;;;;6160831;23;20005;-80
2021/01/03 13:03:42;;;;;;;2.35;1.92;;;9.50;99.90;;;;;;6160392;23;20005;-80
2021/01/03 13:06:10;;;;;;;3.47;1.85;;;9.50;99.90;;;;;;6186609;23;20004;-80
2021/01/03 13:08:36;;;;;;;2.03;1.30;;;9.50;99.90;;;;;;6160433;23;20139;-80
2021/01/03 13:11:02;;;;;;;2.90;1.27;;;9.50;99.90;;;;;;6160408;23;20382;-83
2021/01/03 13:13:27;;;;;;;4.15;1.63;;;9.60;99.90;;;;;;6160548;23;20010;-83
2021/01/03 13:15:53;;;;;;;4.15;1.40;;;9.70;99.90;;;;;;6186581;23;20005;-83
2021/01/03 13:18:19;;;;;;;4.22;1.30;;;9.80;99.90;;;;;;6186621;23;20001;-85
2021/01/03 13:20:44;;;;;;;2.03;1.83;;;9.80;99.90;;;;;;6186650;23;20001;-82
2021/01/03 13:23:10;;;;;;;4.20;2.13;;;9.80;99.90;;;;;;6158108;23;20012;-81
2021/01/03 13:25:38;;;;;;;4.10;1.90;;;9.70;99.90;;;;;;6153929;23;20001;-81
2021/01/03 13:28:04;;;;;;;2.67;1.88;;;9.70;99.90;;;;;;6154669;23;20323;-81
2021/01/03 13:30:30;;;;;;;3.00;1.60;;;9.60;99.90;;;;;;6149845;23;20016;-82